Time;durP1;ratioP1;P1;durP2;ratioP2;P2;SDS_P1;SDS_P2;PMS_P1;PMS_P2;Temp;Humidity;BMP_temperature;BMP_pressure;BME280_temperature;BME280_humidity;BME280_pressure;Samples;Min_cycle;Max_cycle;Signal;HPM_P1;HPM_P2
2022/08/04 00:01:08;;;;;;;;;1.25;1.25;;;;;;;;5053644;28;45403;-62
2022/08/04 00:03:41;;;;;;;;;2.00;1.00;;;;;;;;5071832;28;45433;-63
2022/08/04 00:06:13;;;;;;;;;2.00;2.00;;;;;;;;5071466;28;45415;-62
2022/08/04 00:08:48;;;;;;;;;1.75;1.75;;;;;;;;5071333;28;46684;-63
2022/08/04 00:11:18;;;;;;;;;3.00;2.00;;;;;;;;5071608;28;45407;-63
2022/08/04 00:13:48;;;;;;;;;1.00;1.00;;;;;;;;5053597;27;45395;-63
2022/08/04 00:16:13;;;;;;;;;1.75;1.75;;;;;;;;5071446;28;45375;-63
2022/08/04 00:18:40;;;;;;;;;3.00;1.00;;;;;;;;5071128;27;45834;-63
2022/08/04 00:21:08;;;;;;;;;0.75;0.75;;;;;;;;5071740;28;45593;-63
2022/08/04 00:23:35;;;;;;;;;1.75;1.75;;;;;;;;5074613;28;45387;-63
2022/08/04 00:26:00;;;;;;;;;1.00;1.00;;;;;;;;5056054;28;45392;-63
2022/08/04 00:28:26;;;;;;;;;2.50;2.00;;;;;;;;5074328;28;45674;-62
2022/08/04 00:30:52;;;;;;;;;1.00;1.00;;;;;;;;5072629;28;45455;-62
2022/08/04 00:33:19;;;;;;;;;2.25;1.50;;;;;;;;5074091;28;45436;-63
2022/08/04 00:35:45;;;;;;;;;2.00;2.00;;;;;;;;5074424;28;45367;-62
2022/08/04 00:38:12;;;;;;;;;1.75;1.00;;;;;;;;5074097;28;45635;-62
2022/08/04 00:40:46;;;;;;;;;2.00;2.00;;;;;;;;5074326;28;45292;-62
2022/08/04 00:43:16;;;;;;;;;1.00;1.00;;;;;;;;5074502;28;45391;-62
2022/08/04 00:45:53;;;;;;;;;2.00;0.75;;;;;;;;5074419;28;45401;-62
2022/08/04 00:48:31;;;;;;;;;4.75;1.25;;;;;;;;5074055;28;46970;-62
2022/08/04 00:50:56;;;;;;;;;2.75;2.00;;;;;;;;5074120;28;45431;-62
2022/08/04 00:53:40;;;;;;;;;1.50;1.00;;;;;;;;5074144;28;45349;-62
2022/08/04 00:56:15;;;;;;;;;3.00;2.00;;;;;;;;5055950;28;45375;-62
2022/08/04 00:58:40;;;;;;;;;1.00;1.00;;;;;;;;5074240;28;46414;-62
2022/08/04 01:01:13;;;;;;;;;1.00;1.00;;;;;;;;5055984;27;45537;-63
2022/08/04 01:03:48;;;;;;;;;5.00;3.50;;;;;;;;5074406;28;45638;-62
2022/08/04 01:06:23;;;;;;;;;2.00;2.00;;;;;;;;5073920;28;45508;-62
2022/08/04 01:09:07;;;;;;;;;2.75;2.75;;;;;;;;5073744;28;46012;-62
2022/08/04 01:11:44;;;;;;;;;1.25;1.25;;;;;;;;5074009;28;45402;-63
2022/08/04 01:14:22;;;;;;;;;5.75;4.00;;;;;;;;5073975;28;45332;-63
2022/08/04 01:16:50;;;;;;;;;3.25;1.75;;;;;;;;5073798;28;45443;-63
2022/08/04 01:19:32;;;;;;;;;2.25;2.25;;;;;;;;5051978;28;47048;-63
2022/08/04 01:21:57;;;;;;;;;3.00;2.00;;;;;;;;5053524;28;45452;-63
2022/08/04 01:24:37;;;;;;;;;2.00;2.00;;;;;;;;5053634;28;45348;-62
2022/08/04 01:27:03;;;;;;;;;3.00;2.00;;;;;;;;5051972;28;45603;-63
2022/08/04 01:29:37;;;;;;;;;1.00;1.00;;;;;;;;5053441;28;45725;-62
2022/08/04 01:32:03;;;;;;;;;0.50;0.50;;;;;;;;5053612;28;45543;-63
2022/08/04 01:34:33;;;;;;;;;1.25;1.25;;;;;;;;5052889;28;45421;-63
2022/08/04 01:37:16;;;;;;;;;3.75;2.50;;;;;;;;5053365;28;46105;-63
2022/08/04 01:39:48;;;;;;;;;4.00;1.25;;;;;;;;5053233;28;46425;-63
2022/08/04 01:42:16;;;;;;;;;1.75;1.75;;;;;;;;5053199;28;45456;-63
2022/08/04 01:44:42;;;;;;;;;2.00;2.00;;;;;;;;5051664;28;45501;-63
2022/08/04 01:47:08;;;;;;;;;2.75;2.00;;;;;;;;5053306;28;45392;-63
2022/08/04 01:49:34;;;;;;;;;5.25;2.00;;;;;;;;5053315;28;46113;-63
2022/08/04 01:52:01;;;;;;;;;2.00;2.00;;;;;;;;5053180;28;45418;-63
2022/08/04 01:54:27;;;;;;;;;3.25;3.00;;;;;;;;5053327;27;45422;-63
2022/08/04 01:56:53;;;;;;;;;6.00;5.00;;;;;;;;5053045;28;45304;-63
2022/08/04 01:59:19;;;;;;;;;5.00;2.50;;;;;;;;5053152;28;46677;-63
2022/08/04 02:01:45;;;;;;;;;2.75;2.25;;;;;;;;5051772;28;45549;-63
2022/08/04 02:04:14;;;;;;;;;2.25;2.25;;;;;;;;5051779;28;45445;-62
2022/08/04 02:06:39;;;;;;;;;3.00;3.00;;;;;;;;5053172;28;45525;-63
2022/08/04 02:09:15;;;;;;;;;4.00;3.00;;;;;;;;5052935;28;45800;-63
2022/08/04 02:11:47;;;;;;;;;2.00;2.00;;;;;;;;5052997;28;45374;-63
2022/08/04 02:14:39;;;;;;;;;3.50;2.00;;;;;;;;5053082;28;45466;-62
2022/08/04 02:17:14;;;;;;;;;3.00;3.00;;;;;;;;5052818;28;45447;-62
2022/08/04 02:19:57;;;;;;;;;3.25;3.00;;;;;;;;5052413;28;46596;-63
2022/08/04 02:22:24;;;;;;;;;2.50;2.50;;;;;;;;5052732;28;45421;-62
2022/08/04 02:24:55;;;;;;;;;2.75;2.00;;;;;;;;5052916;28;45520;-63
2022/08/04 02:27:24;;;;;;;;;2.50;2.50;;;;;;;;5052614;28;45421;-63
2022/08/04 02:30:00;;;;;;;;;2.50;2.00;;;;;;;;5052598;28;46682;-63
2022/08/04 02:32:26;;;;;;;;;3.00;3.00;;;;;;;;5052576;28;45321;-63
2022/08/04 02:35:02;;;;;;;;;0.75;0.75;;;;;;;;5034721;28;45381;-63
2022/08/04 02:37:29;;;;;;;;;3.25;2.00;;;;;;;;5052737;28;45562;-63
2022/08/04 02:39:57;;;;;;;;;2.50;2.50;;;;;;;;5052435;28;46845;-63
2022/08/04 02:42:22;;;;;;;;;2.25;2.25;;;;;;;;5052609;28;45338;-63
2022/08/04 02:44:49;;;;;;;;;2.50;2.50;;;;;;;;5051448;28;45816;-62
2022/08/04 02:47:16;;;;;;;;;3.75;2.75;;;;;;;;5052366;28;45410;-63
2022/08/04 02:49:44;;;;;;;;;6.75;3.50;;;;;;;;5034253;27;47221;-62
2022/08/04 02:52:11;;;;;;;;;4.00;4.00;;;;;;;;5052382;28;45522;-63
2022/08/04 02:54:38;;;;;;;;;4.00;4.00;;;;;;;;5052566;28;45452;-62
2022/08/04 02:57:07;;;;;;;;;2.25;1.25;;;;;;;;5052704;28;45776;-62
2022/08/04 02:59:51;;;;;;;;;3.00;3.00;;;;;;;;5052271;28;45469;-62
2022/08/04 03:02:20;;;;;;;;;3.00;2.50;;;;;;;;5052367;28;45270;-62
2022/08/04 03:05:08;;;;;;;;;5.50;3.00;;;;;;;;5034145;28;45445;-62
2022/08/04 03:07:52;;;;;;;;;6.00;4.25;;;;;;;;5051840;28;45549;-62
2022/08/04 03:10:20;;;;;;;;;4.00;3.25;;;;;;;;5052165;28;45359;-62
2022/08/04 03:13:03;;;;;;;;;2.00;2.00;;;;;;;;5051941;28;45465;-62
2022/08/04 03:15:29;;;;;;;;;2.50;2.50;;;;;;;;5052400;28;45387;-63
2022/08/04 03:17:57;;;;;;;;;5.50;3.00;;;;;;;;5051969;27;45331;-63
2022/08/04 03:20:28;;;;;;;;;3.00;3.00;;;;;;;;5033887;28;47535;-63
2022/08/04 03:23:06;;;;;;;;;3.00;2.00;;;;;;;;5034011;28;45415;-63
2022/08/04 03:25:48;;;;;;;;;4.00;4.00;;;;;;;;5052068;28;45347;-63
2022/08/04 03:28:32;;;;;;;;;2.00;2.00;;;;;;;;5051874;28;45266;-62
2022/08/04 03:30:57;;;;;;;;;5.50;4.75;;;;;;;;5051711;28;45478;-63
2022/08/04 03:33:41;;;;;;;;;2.75;2.75;;;;;;;;5052012;28;45346;-62
2022/08/04 03:36:29;;;;;;;;;3.25;3.00;;;;;;;;5052036;28;45432;-62
2022/08/04 03:39:17;;;;;;;;;2.75;2.75;;;;;;;;5026345;28;45358;-63
2022/08/04 03:41:51;;;;;;;;;3.00;3.00;;;;;;;;5061506;28;46478;-62
2022/08/04 03:44:45;;;;;;;;;3.00;3.00;;;;;;;;5055075;28;45426;-63
2022/08/04 03:47:33;;;;;;;;;4.50;3.00;;;;;;;;5072492;28;45399;-62
2022/08/04 03:49:58;;;;;;;;;3.00;3.00;;;;;;;;5071880;28;45672;-62
2022/08/04 03:55:53;;;;;;;;;3.00;3.00;;;;;;;;4972254;28;45432;-62
2022/08/04 03:58:24;;;;;;;;;2.00;2.00;;;;;;;;4972521;28;45395;-62
2022/08/04 04:00:55;;;;;;;;;3.00;3.00;;;;;;;;4972707;28;45651;-62
2022/08/04 04:03:39;;;;;;;;;2.00;2.00;;;;;;;;4972290;28;46247;-63
2022/08/04 04:06:04;;;;;;;;;3.00;3.00;;;;;;;;4972397;28;45512;-62
2022/08/04 04:08:29;;;;;;;;;5.00;3.25;;;;;;;;4956130;28;45425;-62
2022/08/04 04:10:54;;;;;;;;;2.00;2.00;;;;;;;;4956150;28;45309;-63
2022/08/04 04:13:20;;;;;;;;;3.50;3.00;;;;;;;;4972376;28;46731;-62
2022/08/04 04:15:45;;;;;;;;;3.00;3.00;;;;;;;;5002661;28;45405;-62
2022/08/04 04:18:28;;;;;;;;;3.00;3.00;;;;;;;;5051617;28;45465;-62
2022/08/04 04:21:19;;;;;;;;;3.00;3.00;;;;;;;;5051926;28;45383;-62
2022/08/04 04:23:57;;;;;;;;;2.75;2.75;;;;;;;;4955601;28;48453;-62
2022/08/04 04:26:22;;;;;;;;;3.00;3.00;;;;;;;;4971967;28;45412;-62
2022/08/04 04:29:05;;;;;;;;;2.25;2.25;;;;;;;;4972362;28;45564;-62
2022/08/04 04:31:36;;;;;;;;;3.75;3.00;;;;;;;;4979618;28;45366;-62
2022/08/04 04:34:14;;;;;;;;;2.00;1.00;;;;;;;;5011431;28;45585;-64
2022/08/04 04:37:00;;;;;;;;;4.00;3.00;;;;;;;;5011550;28;45398;-62
2022/08/04 04:39:44;;;;;;;;;3.00;3.00;;;;;;;;5011691;28;45418;-62
2022/08/04 04:42:33;;;;;;;;;4.25;4.25;;;;;;;;5011504;28;45461;-62
2022/08/04 04:45:16;;;;;;;;;4.50;4.50;;;;;;;;5005754;28;46490;-62
2022/08/04 04:48:00;;;;;;;;;3.25;3.25;;;;;;;;5011341;28;45463;-62
2022/08/04 04:50:46;;;;;;;;;5.00;3.00;;;;;;;;5011673;28;45331;-63
2022/08/04 04:53:11;;;;;;;;;2.75;2.00;;;;;;;;5010340;28;45804;-61
2022/08/04 04:56:03;;;;;;;;;5.25;3.25;;;;;;;;5031039;28;46695;-63
2022/08/04 04:58:30;;;;;;;;;3.00;3.00;;;;;;;;4992716;28;45470;-62
2022/08/04 05:01:15;;;;;;;;;3.00;3.00;;;;;;;;5053448;27;45393;-62
2022/08/04 05:03:50;;;;;;;;;4.00;3.50;;;;;;;;5030320;28;45502;-62
2022/08/04 05:06:44;;;;;;;;;3.75;2.75;;;;;;;;5030298;28;46581;-62
2022/08/04 05:09:10;;;;;;;;;1.75;1.00;;;;;;;;5061941;28;45490;-63
2022/08/04 05:11:53;;;;;;;;;2.75;2.75;;;;;;;;5074960;28;45372;-62
2022/08/04 05:14:33;;;;;;;;;3.75;2.00;;;;;;;;5075103;28;45409;-62
2022/08/04 05:17:01;;;;;;;;;2.75;2.75;;;;;;;;5074702;28;47419;-62
2022/08/04 05:19:26;;;;;;;;;3.50;3.00;;;;;;;;5074498;27;45372;-63
2022/08/04 05:21:58;;;;;;;;;4.25;2.25;;;;;;;;5074912;28;45603;-62
2022/08/04 05:24:24;;;;;;;;;3.50;3.50;;;;;;;;5057819;28;45764;-62
2022/08/04 05:26:52;;;;;;;;;4.00;3.00;;;;;;;;5064159;28;46651;-62
2022/08/04 05:29:25;;;;;;;;;2.25;2.25;;;;;;;;5074744;28;45508;-61
2022/08/04 05:31:52;;;;;;;;;4.00;4.00;;;;;;;;5074583;28;45391;-62
2022/08/04 05:34:26;;;;;;;;;6.50;3.00;;;;;;;;5074630;28;45412;-62
2022/08/04 05:36:57;;;;;;;;;3.25;2.00;;;;;;;;5074402;28;45523;-62
2022/08/04 05:39:27;;;;;;;;;6.00;6.00;;;;;;;;5074277;28;45432;-62
2022/08/04 05:41:53;;;;;;;;;4.00;2.75;;;;;;;;5074580;28;45390;-62
2022/08/04 05:44:19;;;;;;;;;4.00;4.00;;;;;;;;5057311;28;45669;-62
2022/08/04 05:46:46;;;;;;;;;3.00;3.00;;;;;;;;5029786;27;46680;-63
2022/08/04 05:49:11;;;;;;;;;4.25;4.25;;;;;;;;5033049;28;45536;-63
2022/08/04 05:51:37;;;;;;;;;3.25;3.25;;;;;;;;5031939;28;45532;-63
2022/08/04 05:54:04;;;;;;;;;4.50;3.00;;;;;;;;5033209;28;45400;-62
2022/08/04 05:56:32;;;;;;;;;3.25;3.25;;;;;;;;5032854;28;46239;-63
2022/08/04 05:58:58;;;;;;;;;3.75;3.75;;;;;;;;5032937;28;46203;-63
2022/08/04 06:01:24;;;;;;;;;2.25;2.25;;;;;;;;5033102;28;45345;-62
2022/08/04 06:03:49;;;;;;;;;5.50;5.25;;;;;;;;5031749;28;45380;-62
2022/08/04 06:06:16;;;;;;;;;4.00;2.75;;;;;;;;5031464;28;47172;-62
2022/08/04 06:08:41;;;;;;;;;4.50;4.00;;;;;;;;5032940;28;45371;-63
2022/08/04 06:11:08;;;;;;;;;2.00;2.00;;;;;;;;5032819;28;45373;-62
2022/08/04 06:13:40;;;;;;;;;3.25;3.25;;;;;;;;5033075;28;45494;-62
2022/08/04 06:16:07;;;;;;;;;0.75;0.75;;;;;;;;5032650;28;46061;-63
2022/08/04 06:18:34;;;;;;;;;4.00;3.00;;;;;;;;5053515;27;45447;-62
2022/08/04 06:21:01;;;;;;;;;3.75;3.75;;;;;;;;5072746;28;45407;-63
2022/08/04 06:23:28;;;;;;;;;4.75;2.25;;;;;;;;5073083;28;45425;-63
2022/08/04 06:25:55;;;;;;;;;2.00;1.25;;;;;;;;5072857;28;45412;-63
2022/08/04 06:28:21;;;;;;;;;2.00;2.00;;;;;;;;5072779;28;45868;-63
2022/08/04 06:30:48;;;;;;;;;2.25;2.25;;;;;;;;5072986;28;45386;-63
2022/08/04 06:33:25;;;;;;;;;3.50;3.50;;;;;;;;5072891;28;45383;-63
2022/08/04 06:35:52;;;;;;;;;3.75;2.00;;;;;;;;5054613;28;48562;-63
2022/08/04 06:38:18;;;;;;;;;3.75;2.75;;;;;;;;5072724;28;45357;-63
2022/08/04 06:40:43;;;;;;;;;2.50;2.50;;;;;;;;5072948;28;45342;-63
2022/08/04 06:43:09;;;;;;;;;2.75;2.75;;;;;;;;5072619;28;45476;-64
2022/08/04 06:45:35;;;;;;;;;3.00;3.00;;;;;;;;5072622;28;46485;-62
2022/08/04 06:48:02;;;;;;;;;2.75;2.00;;;;;;;;5072692;28;45356;-62
2022/08/04 06:50:28;;;;;;;;;2.50;2.50;;;;;;;;5072761;28;45427;-63
2022/08/04 06:52:53;;;;;;;;;1.75;1.00;;;;;;;;5072551;28;45337;-63
2022/08/04 06:55:18;;;;;;;;;2.50;2.50;;;;;;;;5072468;28;45745;-63
2022/08/04 06:57:44;;;;;;;;;1.00;1.00;;;;;;;;5072766;28;45396;-62
2022/08/04 07:00:11;;;;;;;;;2.25;2.00;;;;;;;;5072770;28;45308;-63
2022/08/04 07:02:50;;;;;;;;;2.50;2.00;;;;;;;;5072633;28;45462;-62
2022/08/04 07:05:15;;;;;;;;;2.50;1.25;;;;;;;;5072043;28;47612;-62
2022/08/04 07:07:41;;;;;;;;;2.00;2.00;;;;;;;;5072085;28;45358;-62
2022/08/04 07:10:07;;;;;;;;;1.00;1.00;;;;;;;;5066636;28;45400;-63
2022/08/04 07:12:32;;;;;;;;;2.25;1.00;;;;;;;;5060809;28;45456;-63
2022/08/04 07:14:57;;;;;;;;;1.75;1.75;;;;;;;;5051866;28;46521;-64
2022/08/04 07:17:24;;;;;;;;;4.50;3.00;;;;;;;;5051831;27;45396;-63
2022/08/04 07:19:49;;;;;;;;;5.25;1.50;;;;;;;;5052151;28;45326;-63
2022/08/04 07:22:14;;;;;;;;;1.00;1.00;;;;;;;;5024181;27;45462;-64
2022/08/04 07:24:40;;;;;;;;;1.50;1.50;;;;;;;;5054239;28;46444;-63
2022/08/04 07:27:06;;;;;;;;;3.00;2.00;;;;;;;;5053669;28;45330;-64
2022/08/04 07:29:31;;;;;;;;;1.00;1.00;;;;;;;;5051922;28;45355;-64
2022/08/04 07:31:58;;;;;;;;;0.25;0.25;;;;;;;;5050994;28;45350;-63
2022/08/04 07:34:24;;;;;;;;;2.25;2.00;;;;;;;;5051686;28;46305;-64
2022/08/04 07:36:51;;;;;;;;;2.00;2.00;;;;;;;;5017025;28;46290;-64
2022/08/04 07:39:16;;;;;;;;;1.50;1.50;;;;;;;;5051929;28;45444;-64
2022/08/04 07:41:42;;;;;;;;;1.00;1.00;;;;;;;;5033686;28;45661;-64
2022/08/04 07:44:07;;;;;;;;;3.00;1.25;;;;;;;;5033299;27;48097;-62
2022/08/04 07:46:33;;;;;;;;;3.00;2.00;;;;;;;;5051544;28;45575;-63
2022/08/04 07:48:59;;;;;;;;;3.00;3.00;;;;;;;;5051564;28;45627;-63
2022/08/04 07:51:25;;;;;;;;;1.25;1.25;;;;;;;;5051785;28;45432;-64
2022/08/04 07:53:50;;;;;;;;;1.25;1.25;;;;;;;;5051520;28;45579;-64
2022/08/04 07:56:17;;;;;;;;;6.00;2.75;;;;;;;;5051334;28;45618;-63
2022/08/04 07:58:42;;;;;;;;;3.00;1.75;;;;;;;;5052766;28;45505;-63
2022/08/04 08:01:08;;;;;;;;;5.00;2.25;;;;;;;;5059882;28;45370;-62
2022/08/04 08:03:34;;;;;;;;;1.00;1.00;;;;;;;;5070723;28;45464;-63
2022/08/04 08:05:59;;;;;;;;;1.00;1.00;;;;;;;;5061038;28;45417;-66
2022/08/04 08:08:24;;;;;;;;;3.00;1.75;;;;;;;;5070893;27;45469;-63
2022/08/04 08:10:50;;;;;;;;;1.50;1.50;;;;;;;;5070977;27;45474;-63
2022/08/04 08:13:16;;;;;;;;;1.25;1.25;;;;;;;;5070824;28;45851;-64
2022/08/04 08:15:45;;;;;;;;;1.00;1.00;;;;;;;;5070763;28;45394;-63
2022/08/04 08:18:11;;;;;;;;;0.25;0.25;;;;;;;;5070647;27;45387;-64
2022/08/04 08:20:36;;;;;;;;;1.00;1.00;;;;;;;;5068133;28;46488;-64
2022/08/04 08:23:02;;;;;;;;;1.00;0.75;;;;;;;;5069445;28;45413;-63
2022/08/04 08:25:28;;;;;;;;;2.00;2.00;;;;;;;;5069167;27;45334;-63
2022/08/04 08:27:54;;;;;;;;;1.00;1.00;;;;;;;;5067353;28;45487;-64
2022/08/04 08:30:19;;;;;;;;;1.25;0.25;;;;;;;;5069320;28;45420;-61
2022/08/04 08:32:44;;;;;;;;;0.50;0.50;;;;;;;;5069195;28;46202;-63
2022/08/04 08:35:09;;;;;;;;;1.75;1.75;;;;;;;;5068783;28;45413;-64
2022/08/04 08:37:37;;;;;;;;;1.00;1.00;;;;;;;;5068967;28;45358;-63
2022/08/04 08:40:11;;;;;;;;;1.25;1.00;;;;;;;;5061945;27;45602;-65
2022/08/04 08:42:53;;;;;;;;;1.00;1.00;;;;;;;;5054423;28;46726;-63
2022/08/04 08:45:21;;;;;;;;;1.00;1.00;;;;;;;;5047176;28;45510;-63
2022/08/04 08:47:50;;;;;;;;;0.00;0.00;;;;;;;;5072041;28;45462;-63
2022/08/04 08:50:33;;;;;;;;;3.00;1.00;;;;;;;;5071769;28;45400;-63
2022/08/04 08:53:12;;;;;;;;;1.00;1.00;;;;;;;;5069078;28;46226;-65
2022/08/04 08:55:46;;;;;;;;;1.00;1.00;;;;;;;;5071444;27;45678;-62
2022/08/04 08:58:31;;;;;;;;;4.00;1.00;;;;;;;;5051959;28;45422;-63
2022/08/04 09:01:04;;;;;;;;;0.00;0.00;;;;;;;;5051717;28;45733;-63
2022/08/04 09:03:48;;;;;;;;;0.00;0.00;;;;;;;;5069042;28;46431;-62
2022/08/04 09:06:26;;;;;;;;;1.00;1.00;;;;;;;;5071720;28;45493;-62
2022/08/04 09:09:00;;;;;;;;;1.75;1.75;;;;;;;;5071290;28;45482;-64
2022/08/04 09:11:28;;;;;;;;;0.00;0.00;;;;;;;;5071442;27;45778;-62
2022/08/04 09:14:02;;;;;;;;;1.00;1.00;;;;;;;;5070796;28;46140;-61
2022/08/04 09:16:27;;;;;;;;;0.00;0.00;;;;;;;;5071448;28;45548;-61
2022/08/04 09:19:07;;;;;;;;;0.00;0.00;;;;;;;;5061223;28;45575;-65
2022/08/04 09:21:40;;;;;;;;;0.50;0.00;;;;;;;;5072879;28;45786;-63
2022/08/04 09:24:09;;;;;;;;;0.00;0.00;;;;;;;;5073410;27;47145;-63
2022/08/04 09:26:47;;;;;;;;;0.00;0.00;;;;;;;;5073427;28;45461;-62
2022/08/04 09:29:31;;;;;;;;;0.00;0.00;;;;;;;;5055312;28;45492;-64
2022/08/04 09:32:01;;;;;;;;;1.00;0.00;;;;;;;;5073760;28;45368;-63
2022/08/04 09:34:33;;;;;;;;;1.00;1.00;;;;;;;;5055146;28;47967;-63
2022/08/04 09:37:11;;;;;;;;;1.00;1.00;;;;;;;;5054972;28;45563;-63
2022/08/04 09:39:55;;;;;;;;;1.00;1.00;;;;;;;;5058275;28;45441;-63
2022/08/04 09:42:53;;;;;;;;;0.50;0.00;;;;;;;;5035068;28;45554;-64
2022/08/04 09:45:23;;;;;;;;;0.00;0.00;;;;;;;;5070169;28;45417;-64
2022/08/04 09:47:51;;;;;;;;;0.00;0.00;;;;;;;;5066478;28;45487;-63
2022/08/04 09:50:32;;;;;;;;;1.00;1.00;;;;;;;;5036921;28;45446;-63
2022/08/04 09:53:16;;;;;;;;;0.00;0.00;;;;;;;;5053858;28;45516;-63
2022/08/04 09:55:45;;;;;;;;;0.00;0.00;;;;;;;;5036021;28;47697;-63
2022/08/04 09:58:21;;;;;;;;;0.25;0.25;;;;;;;;5053723;28;45549;-64
2022/08/04 10:00:48;;;;;;;;;0.00;0.00;;;;;;;;5053729;28;45444;-63
2022/08/04 10:03:15;;;;;;;;;0.00;0.00;;;;;;;;5073089;28;45807;-64
2022/08/04 10:06:05;;;;;;;;;0.00;0.00;;;;;;;;5073803;28;46636;-62
2022/08/04 10:08:49;;;;;;;;;0.25;0.25;;;;;;;;5073779;28;45468;-62
2022/08/04 10:11:22;;;;;;;;;0.00;0.00;;;;;;;;5074050;28;45444;-64
2022/08/04 10:13:55;;;;;;;;;0.00;0.00;;;;;;;;5074062;28;45541;-63
2022/08/04 10:16:44;;;;;;;;;0.00;0.00;;;;;;;;5073790;28;46669;-62
2022/08/04 10:19:31;;;;;;;;;2.25;0.00;;;;;;;;5065383;28;45418;-63
2022/08/04 10:22:26;;;;;;;;;0.00;0.00;;;;;;;;5073232;28;45503;-66
2022/08/04 10:25:09;;;;;;;;;0.25;0.00;;;;;;;;5055122;27;45376;-65
2022/08/04 10:27:35;;;;;;;;;1.00;0.00;;;;;;;;5072702;28;46002;-63
2022/08/04 10:30:10;;;;;;;;;0.00;0.00;;;;;;;;5073212;28;45356;-63
2022/08/04 10:32:54;;;;;;;;;0.00;0.00;;;;;;;;5073044;28;45436;-63
2022/08/04 10:35:21;;;;;;;;;0.00;0.00;;;;;;;;5072995;28;45361;-64
2022/08/04 10:37:59;;;;;;;;;1.00;1.00;;;;;;;;5072724;28;46810;-63
2022/08/04 10:40:56;;;;;;;;;0.00;0.00;;;;;;;;5054698;28;46081;-64
2022/08/04 10:43:39;;;;;;;;;0.00;0.00;;;;;;;;5072957;28;45351;-63
2022/08/04 10:46:25;;;;;;;;;1.00;1.00;;;;;;;;5054449;28;45434;-63
2022/08/04 10:48:55;;;;;;;;;1.25;0.00;;;;;;;;5072576;28;45761;-63
2022/08/04 10:51:24;;;;;;;;;0.00;0.00;;;;;;;;5072788;28;45520;-65
2022/08/04 10:53:52;;;;;;;;;0.00;0.00;;;;;;;;5054576;28;45406;-63
2022/08/04 10:56:53;;;;;;;;;0.00;0.00;;;;;;;;5054481;28;45456;-63
2022/08/04 10:59:23;;;;;;;;;0.75;0.75;;;;;;;;5056034;28;47505;-64
2022/08/04 11:01:50;;;;;;;;;0.00;0.00;;;;;;;;5056046;28;45406;-63
2022/08/04 11:04:34;;;;;;;;;1.00;0.00;;;;;;;;5056216;28;45564;-64
2022/08/04 11:06:59;;;;;;;;;0.50;0.50;;;;;;;;5071592;28;45548;-64
2022/08/04 11:09:25;;;;;;;;;0.00;0.00;;;;;;;;5072815;28;45431;-63
2022/08/04 11:11:56;;;;;;;;;1.25;1.00;;;;;;;;5056015;28;45950;-63
2022/08/04 11:14:26;;;;;;;;;0.00;0.00;;;;;;;;5055912;28;45370;-63
2022/08/04 11:16:56;;;;;;;;;0.25;0.25;;;;;;;;5072927;28;45475;-64
2022/08/04 11:19:31;;;;;;;;;1.00;1.00;;;;;;;;5070592;28;45695;-63
2022/08/04 11:22:04;;;;;;;;;0.25;0.25;;;;;;;;5055407;28;46492;-63
2022/08/04 11:24:30;;;;;;;;;0.00;0.00;;;;;;;;5072938;28;45391;-63
2022/08/04 11:26:57;;;;;;;;;0.50;0.50;;;;;;;;5072688;27;45323;-63
2022/08/04 11:29:33;;;;;;;;;1.00;1.00;;;;;;;;5072642;28;45462;-64
2022/08/04 11:32:01;;;;;;;;;0.50;0.50;;;;;;;;5072655;28;45421;-63
2022/08/04 11:34:26;;;;;;;;;1.00;1.00;;;;;;;;5052588;28;45388;-64
2022/08/04 11:37:08;;;;;;;;;0.00;0.00;;;;;;;;5051965;28;45402;-63
2022/08/04 11:39:36;;;;;;;;;0.00;0.00;;;;;;;;5051695;28;45776;-63
2022/08/04 11:42:16;;;;;;;;;3.00;2.00;;;;;;;;5033743;28;45361;-64
2022/08/04 11:44:46;;;;;;;;;1.00;1.00;;;;;;;;5051777;28;45436;-63
2022/08/04 11:47:24;;;;;;;;;1.25;1.25;;;;;;;;5033693;28;45499;-65
2022/08/04 11:49:59;;;;;;;;;2.00;2.00;;;;;;;;5033388;28;47423;-62
2022/08/04 11:52:26;;;;;;;;;2.00;2.00;;;;;;;;5051911;28;45573;-64
2022/08/04 11:54:51;;;;;;;;;1.25;1.25;;;;;;;;5051743;28;45383;-63
2022/08/04 11:57:16;;;;;;;;;2.00;1.00;;;;;;;;5051617;28;45401;-64
2022/08/04 11:59:42;;;;;;;;;2.00;2.00;;;;;;;;5051481;28;45351;-63
2022/08/04 12:02:22;;;;;;;;;1.00;1.00;;;;;;;;5051575;28;45475;-63
2022/08/04 12:04:58;;;;;;;;;1.25;1.25;;;;;;;;5033540;28;45383;-63
2022/08/04 12:07:24;;;;;;;;;3.50;2.25;;;;;;;;5051362;28;45551;-63
2022/08/04 12:09:57;;;;;;;;;1.75;1.75;;;;;;;;5051259;28;45920;-64
2022/08/04 12:12:28;;;;;;;;;2.00;2.00;;;;;;;;5051372;28;45405;-63
2022/08/04 12:14:59;;;;;;;;;2.50;2.00;;;;;;;;5033218;28;45351;-63
2022/08/04 12:17:28;;;;;;;;;3.00;2.00;;;;;;;;5033448;28;45529;-62
2022/08/04 12:20:00;;;;;;;;;2.50;2.50;;;;;;;;5054269;28;45910;-63
2022/08/04 12:22:26;;;;;;;;;2.75;1.75;;;;;;;;5054157;28;45356;-62
2022/08/04 12:25:08;;;;;;;;;1.25;1.25;;;;;;;;5036411;27;45469;-63
2022/08/04 12:27:36;;;;;;;;;1.50;1.50;;;;;;;;5070703;28;45465;-62
2022/08/04 12:30:02;;;;;;;;;1.75;1.75;;;;;;;;5074306;28;46338;-64
2022/08/04 12:32:35;;;;;;;;;2.25;1.50;;;;;;;;5074383;28;45511;-63
2022/08/04 12:35:07;;;;;;;;;1.25;1.25;;;;;;;;5074290;28;45513;-63
2022/08/04 12:37:51;;;;;;;;;1.00;1.00;;;;;;;;5074346;28;45346;-62
2022/08/04 12:40:23;;;;;;;;;1.00;1.00;;;;;;;;5074108;28;45824;-63
2022/08/04 12:42:57;;;;;;;;;0.75;0.75;;;;;;;;5074245;28;45441;-63
2022/08/04 12:45:22;;;;;;;;;2.50;1.00;;;;;;;;5074119;28;45572;-63
2022/08/04 12:47:49;;;;;;;;;1.00;1.00;;;;;;;;5074124;28;45547;-63
2022/08/04 12:50:15;;;;;;;;;1.00;1.00;;;;;;;;5074040;28;46255;-63
2022/08/04 12:52:47;;;;;;;;;2.00;2.00;;;;;;;;5074469;28;45471;-63
2022/08/04 12:55:12;;;;;;;;;1.25;1.25;;;;;;;;5074260;28;45425;-64
2022/08/04 12:57:39;;;;;;;;;1.00;1.00;;;;;;;;5073885;28;45460;-63
2022/08/04 13:00:06;;;;;;;;;1.00;1.00;;;;;;;;5073902;28;45775;-63
2022/08/04 13:02:36;;;;;;;;;2.50;2.00;;;;;;;;5073818;28;45483;-63
2022/08/04 13:05:03;;;;;;;;;2.00;2.00;;;;;;;;5055835;28;45412;-63
2022/08/04 13:07:34;;;;;;;;;2.00;1.00;;;;;;;;5055659;28;45360;-63
2022/08/04 13:10:01;;;;;;;;;1.00;1.00;;;;;;;;5055498;28;45856;-63
2022/08/04 13:12:28;;;;;;;;;1.25;1.25;;;;;;;;5073841;28;45365;-63
2022/08/04 13:14:59;;;;;;;;;0.50;0.50;;;;;;;;5074044;28;45457;-63
2022/08/04 13:17:24;;;;;;;;;2.25;1.00;;;;;;;;5073495;27;45474;-62
2022/08/04 13:19:53;;;;;;;;;1.00;1.00;;;;;;;;5073663;28;46193;-64
2022/08/04 13:22:28;;;;;;;;;1.25;1.25;;;;;;;;5073634;28;45365;-63
2022/08/04 13:24:58;;;;;;;;;1.25;1.25;;;;;;;;5073861;28;45456;-62
2022/08/04 13:27:24;;;;;;;;;2.25;1.00;;;;;;;;5073484;28;45403;-63
2022/08/04 13:29:51;;;;;;;;;2.00;2.00;;;;;;;;5054613;27;47822;-62
2022/08/04 13:32:21;;;;;;;;;1.25;1.25;;;;;;;;5073560;28;45375;-63
2022/08/04 13:34:47;;;;;;;;;2.75;1.00;;;;;;;;5073744;28;45478;-64
2022/08/04 13:37:13;;;;;;;;;1.75;1.75;;;;;;;;5055387;28;45569;-64
2022/08/04 13:39:43;;;;;;;;;2.00;2.00;;;;;;;;5055382;27;45450;-63
2022/08/04 13:42:10;;;;;;;;;1.25;1.25;;;;;;;;5073250;28;45316;-64
2022/08/04 13:44:36;;;;;;;;;2.00;2.00;;;;;;;;5073680;28;45289;-63
2022/08/04 13:47:22;;;;;;;;;2.00;2.00;;;;;;;;5073476;27;45836;-64
2022/08/04 13:50:31;;;;;;;;;2.25;2.25;;;;;;;;5073318;28;45671;-62
2022/08/04 13:52:58;;;;;;;;;1.00;1.00;;;;;;;;5073930;28;45428;-63
2022/08/04 13:55:31;;;;;;;;;2.00;1.25;;;;;;;;5074289;28;45739;-63
2022/08/04 13:57:58;;;;;;;;;0.50;0.50;;;;;;;;5074096;28;45470;-64
2022/08/04 14:00:25;;;;;;;;;1.25;1.25;;;;;;;;5074016;28;46061;-63
2022/08/04 14:02:59;;;;;;;;;2.00;2.00;;;;;;;;5073851;28;45377;-62
2022/08/04 14:05:28;;;;;;;;;2.00;2.00;;;;;;;;5073997;28;45450;-62
2022/08/04 14:07:57;;;;;;;;;1.00;1.00;;;;;;;;5056985;28;45834;-63
2022/08/04 14:10:22;;;;;;;;;2.00;2.00;;;;;;;;5073683;28;45760;-63
2022/08/04 14:12:48;;;;;;;;;1.50;1.50;;;;;;;;5073773;28;45321;-63
2022/08/04 14:15:32;;;;;;;;;1.00;1.00;;;;;;;;5073926;28;45560;-62
2022/08/04 14:18:17;;;;;;;;;4.00;2.00;;;;;;;;5056742;28;45351;-63
2022/08/04 14:21:01;;;;;;;;;2.00;2.00;;;;;;;;5073727;28;45697;-64
2022/08/04 14:23:27;;;;;;;;;2.00;2.00;;;;;;;;5073397;28;45394;-63
2022/08/04 14:25:52;;;;;;;;;2.50;2.50;;;;;;;;5073068;28;45452;-62
2022/08/04 14:28:27;;;;;;;;;2.00;2.00;;;;;;;;5054666;28;45359;-63
2022/08/04 14:31:08;;;;;;;;;1.50;1.50;;;;;;;;5072716;28;45850;-63
2022/08/04 14:33:37;;;;;;;;;0.00;0.00;;;;;;;;5072820;28;45429;-63
2022/08/04 14:36:03;;;;;;;;;3.00;2.00;;;;;;;;5054849;28;45734;-64
2022/08/04 14:39:06;;;;;;;;;2.00;2.00;;;;;;;;5072864;28;45505;-63
2022/08/04 14:41:43;;;;;;;;;3.50;2.00;;;;;;;;5073186;28;45729;-63
2022/08/04 14:44:08;;;;;;;;;2.00;2.00;;;;;;;;5073163;28;45481;-63
2022/08/04 14:46:48;;;;;;;;;3.00;2.00;;;;;;;;5073211;28;45417;-64
2022/08/04 14:49:14;;;;;;;;;1.75;1.75;;;;;;;;5073383;28;45389;-63
2022/08/04 14:51:41;;;;;;;;;2.25;2.25;;;;;;;;5056109;28;46737;-63
2022/08/04 14:54:07;;;;;;;;;2.00;2.00;;;;;;;;5056168;28;46293;-63
2022/08/04 14:56:32;;;;;;;;;2.00;2.00;;;;;;;;5073230;28;45378;-63
2022/08/04 14:58:59;;;;;;;;;3.50;3.00;;;;;;;;5073099;28;45334;-63
2022/08/04 15:01:26;;;;;;;;;2.00;2.00;;;;;;;;5055998;28;48511;-62
2022/08/04 15:03:52;;;;;;;;;1.00;1.00;;;;;;;;5056046;28;46054;-63
2022/08/04 15:06:19;;;;;;;;;4.00;3.00;;;;;;;;5072969;28;45491;-63
2022/08/04 15:08:44;;;;;;;;;2.50;2.50;;;;;;;;5072953;28;45396;-63
2022/08/04 15:11:10;;;;;;;;;4.00;3.00;;;;;;;;5072768;28;47069;-63
2022/08/04 15:13:35;;;;;;;;;2.50;2.50;;;;;;;;5072486;28;45385;-63